sensor_id;sensor_type;location;lat;lon;timestamp;P1;durP1;ratioP1;P2;durP2;ratioP2
38262;SDS011;24054;50.128;19.730;2022-09-09T00:00:53;11.70;;;7.95;;
38262;SDS011;24054;50.128;19.730;2022-09-09T00:03:26;12.32;;;8.10;;
38262;SDS011;24054;50.128;19.730;2022-09-09T00:05:59;11.60;;;7.20;;
38262;SDS011;24054;50.128;19.730;2022-09-09T00:08:36;9.13;;;7.55;;
38262;SDS011;24054;50.128;19.730;2022-09-09T00:11:11;10.27;;;7.72;;
38262;SDS011;24054;50.128;19.730;2022-09-09T00:13:46;10.23;;;8.10;;
38262;SDS011;24054;50.128;19.730;2022-09-09T00:16:19;9.52;;;7.32;;
38262;SDS011;24054;50.128;19.730;2022-09-09T00:18:51;10.95;;;7.45;;
38262;SDS011;24054;50.128;19.730;2022-09-09T00:21:27;11.05;;;7.75;;
38262;SDS011;24054;50.128;19.730;2022-09-09T00:23:59;11.07;;;8.00;;
38262;SDS011;24054;50.128;19.730;2022-09-09T00:26:35;9.65;;;7.72;;
38262;SDS011;24054;50.128;19.730;2022-09-09T00:29:13;9.48;;;7.55;;
38262;SDS011;24054;50.128;19.730;2022-09-09T00:31:47;9.48;;;7.32;;
38262;SDS011;24054;50.128;19.730;2022-09-09T00:34:15;11.10;;;7.80;;
38262;SDS011;24054;50.128;19.730;2022-09-09T00:36:46;11.65;;;7.70;;
38262;SDS011;24054;50.128;19.730;2022-09-09T00:39:23;10.85;;;7.45;;
38262;SDS011;24054;50.128;19.730;2022-09-09T00:41:58;8.55;;;7.57;;
38262;SDS011;24054;50.128;19.730;2022-09-09T00:44:37;10.50;;;7.78;;
38262;SDS011;24054;50.128;19.730;2022-09-09T00:47:09;9.80;;;7.55;;
38262;SDS011;24054;50.128;19.730;2022-09-09T00:49:47;8.85;;;7.00;;
38262;SDS011;24054;50.128;19.730;2022-09-09T00:52:26;10.25;;;7.35;;
38262;SDS011;24054;50.128;19.730;2022-09-09T00:55:03;8.98;;;7.53;;
38262;SDS011;24054;50.128;19.730;2022-09-09T00:57:38;10.40;;;7.65;;
38262;SDS011;24054;50.128;19.730;2022-09-09T01:00:18;8.77;;;7.35;;
38262;SDS011;24054;50.128;19.730;2022-09-09T01:02:50;9.75;;;7.38;;
38262;SDS011;24054;50.128;19.730;2022-09-09T01:05:26;10.35;;;7.15;;
38262;SDS011;24054;50.128;19.730;2022-09-09T01:08:00;10.95;;;7.53;;
38262;SDS011;24054;50.128;19.730;2022-09-09T01:10:30;8.77;;;6.90;;
38262;SDS011;24054;50.128;19.730;2022-09-09T01:13:08;9.18;;;6.97;;
38262;SDS011;24054;50.128;19.730;2022-09-09T01:15:44;10.68;;;7.30;;
38262;SDS011;24054;50.128;19.730;2022-09-09T01:18:13;10.30;;;7.32;;
38262;SDS011;24054;50.128;19.730;2022-09-09T01:20:46;9.68;;;6.88;;
38262;SDS011;24054;50.128;19.730;2022-09-09T01:26:17;10.35;;;6.50;;
38262;SDS011;24054;50.128;19.730;2022-09-09T01:28:47;8.70;;;6.43;;
38262;SDS011;24054;50.128;19.730;2022-09-09T01:31:18;9.65;;;7.25;;
38262;SDS011;24054;50.128;19.730;2022-09-09T01:33:47;8.63;;;7.00;;
38262;SDS011;24054;50.128;19.730;2022-09-09T01:36:17;8.48;;;7.35;;
38262;SDS011;24054;50.128;19.730;2022-09-09T01:38:47;8.70;;;6.80;;
38262;SDS011;24054;50.128;19.730;2022-09-09T01:41:14;8.88;;;6.97;;
38262;SDS011;24054;50.128;19.730;2022-09-09T01:43:43;8.55;;;6.53;;
38262;SDS011;24054;50.128;19.730;2022-09-09T01:46:10;7.90;;;6.65;;
38262;SDS011;24054;50.128;19.730;2022-09-09T01:48:39;8.45;;;6.68;;
38262;SDS011;24054;50.128;19.730;2022-09-09T01:51:07;9.50;;;6.73;;
38262;SDS011;24054;50.128;19.730;2022-09-09T01:53:35;9.98;;;6.30;;
38262;SDS011;24054;50.128;19.730;2022-09-09T01:56:06;8.30;;;6.70;;
38262;SDS011;24054;50.128;19.730;2022-09-09T01:58:43;10.88;;;7.03;;
38262;SDS011;24054;50.128;19.730;2022-09-09T02:01:28;7.47;;;5.85;;
38262;SDS011;24054;50.128;19.730;2022-09-09T02:04:03;8.50;;;6.68;;
38262;SDS011;24054;50.128;19.730;2022-09-09T02:06:40;7.30;;;6.18;;
38262;SDS011;24054;50.128;19.730;2022-09-09T02:09:09;8.90;;;6.45;;
38262;SDS011;24054;50.128;19.730;2022-09-09T02:11:38;7.55;;;6.18;;
38262;SDS011;24054;50.128;19.730;2022-09-09T02:14:09;9.93;;;6.47;;
38262;SDS011;24054;50.128;19.730;2022-09-09T02:16:39;7.53;;;6.45;;
38262;SDS011;24054;50.128;19.730;2022-09-09T02:19:09;8.82;;;5.85;;
38262;SDS011;24054;50.128;19.730;2022-09-09T02:21:41;8.68;;;6.40;;
38262;SDS011;24054;50.128;19.730;2022-09-09T02:24:10;7.88;;;6.18;;
38262;SDS011;24054;50.128;19.730;2022-09-09T02:26:41;6.97;;;5.95;;
38262;SDS011;24054;50.128;19.730;2022-09-09T02:29:13;8.10;;;5.97;;
38262;SDS011;24054;50.128;19.730;2022-09-09T02:31:44;8.30;;;5.97;;
38262;SDS011;24054;50.128;19.730;2022-09-09T02:34:13;7.63;;;5.50;;
38262;SDS011;24054;50.128;19.730;2022-09-09T02:36:43;6.93;;;6.15;;
38262;SDS011;24054;50.128;19.730;2022-09-09T02:41:39;6.97;;;5.53;;
38262;SDS011;24054;50.128;19.730;2022-09-09T02:44:09;7.28;;;6.05;;
38262;SDS011;24054;50.128;19.730;2022-09-09T02:46:43;15.32;;;7.07;;
38262;SDS011;24054;50.128;19.730;2022-09-09T02:49:28;7.82;;;5.70;;
38262;SDS011;24054;50.128;19.730;2022-09-09T02:52:05;7.25;;;5.93;;
38262;SDS011;24054;50.128;19.730;2022-09-09T02:54:34;7.93;;;5.55;;
38262;SDS011;24054;50.128;19.730;2022-09-09T02:57:05;9.25;;;5.88;;
38262;SDS011;24054;50.128;19.730;2022-09-09T02:59:35;7.97;;;5.85;;
38262;SDS011;24054;50.128;19.730;2022-09-09T03:02:04;6.53;;;5.10;;
38262;SDS011;24054;50.128;19.730;2022-09-09T03:04:32;6.55;;;5.88;;
38262;SDS011;24054;50.128;19.730;2022-09-09T03:06:59;7.22;;;6.00;;
38262;SDS011;24054;50.128;19.730;2022-09-09T03:09:25;6.82;;;5.32;;
38262;SDS011;24054;50.128;19.730;2022-09-09T03:11:52;7.90;;;5.78;;
38262;SDS011;24054;50.128;19.730;2022-09-09T03:14:20;8.43;;;5.20;;
38262;SDS011;24054;50.128;19.730;2022-09-09T03:16:49;6.43;;;5.47;;
38262;SDS011;24054;50.128;19.730;2022-09-09T03:19:18;5.93;;;5.00;;
38262;SDS011;24054;50.128;19.730;2022-09-09T03:24:12;5.30;;;4.78;;
38262;SDS011;24054;50.128;19.730;2022-09-09T03:26:39;8.52;;;5.50;;
38262;SDS011;24054;50.128;19.730;2022-09-09T03:29:06;6.60;;;5.10;;
38262;SDS011;24054;50.128;19.730;2022-09-09T03:31:33;6.15;;;5.15;;
38262;SDS011;24054;50.128;19.730;2022-09-09T03:34:00;7.07;;;5.22;;
38262;SDS011;24054;50.128;19.730;2022-09-09T03:36:29;5.00;;;4.50;;
38262;SDS011;24054;50.128;19.730;2022-09-09T03:38:56;6.80;;;5.50;;
38262;SDS011;24054;50.128;19.730;2022-09-09T03:41:24;6.47;;;5.35;;
38262;SDS011;24054;50.128;19.730;2022-09-09T03:43:51;7.35;;;4.75;;
38262;SDS011;24054;50.128;19.730;2022-09-09T03:46:18;5.60;;;5.00;;
38262;SDS011;24054;50.128;19.730;2022-09-09T03:48:46;5.75;;;5.07;;
38262;SDS011;24054;50.128;19.730;2022-09-09T03:51:13;5.68;;;5.05;;
38262;SDS011;24054;50.128;19.730;2022-09-09T03:53:42;6.82;;;5.13;;
38262;SDS011;24054;50.128;19.730;2022-09-09T03:56:09;5.72;;;4.50;;
38262;SDS011;24054;50.128;19.730;2022-09-09T03:58:36;5.85;;;5.00;;
38262;SDS011;24054;50.128;19.730;2022-09-09T04:01:04;5.15;;;4.25;;
38262;SDS011;24054;50.128;19.730;2022-09-09T04:03:33;6.15;;;4.82;;
38262;SDS011;24054;50.128;19.730;2022-09-09T04:06:01;5.25;;;4.30;;
38262;SDS011;24054;50.128;19.730;2022-09-09T04:08:30;6.18;;;4.88;;
38262;SDS011;24054;50.128;19.730;2022-09-09T04:10:59;6.32;;;4.82;;
38262;SDS011;24054;50.128;19.730;2022-09-09T04:13:30;5.68;;;5.00;;
38262;SDS011;24054;50.128;19.730;2022-09-09T04:15:57;6.82;;;4.88;;
38262;SDS011;24054;50.128;19.730;2022-09-09T04:18:26;5.88;;;5.20;;
38262;SDS011;24054;50.128;19.730;2022-09-09T04:20:54;6.72;;;5.05;;
38262;SDS011;24054;50.128;19.730;2022-09-09T04:23:22;4.88;;;4.40;;
38262;SDS011;24054;50.128;19.730;2022-09-09T04:25:50;5.20;;;4.60;;
38262;SDS011;24054;50.128;19.730;2022-09-09T04:28:20;4.95;;;4.50;;
38262;SDS011;24054;50.128;19.730;2022-09-09T04:30:48;6.65;;;5.07;;
38262;SDS011;24054;50.128;19.730;2022-09-09T04:33:16;5.43;;;4.20;;
38262;SDS011;24054;50.128;19.730;2022-09-09T04:35:44;5.53;;;4.65;;
38262;SDS011;24054;50.128;19.730;2022-09-09T04:38:12;5.35;;;4.63;;
38262;SDS011;24054;50.128;19.730;2022-09-09T04:40:41;5.50;;;5.00;;
38262;SDS011;24054;50.128;19.730;2022-09-09T04:43:08;5.05;;;4.28;;
38262;SDS011;24054;50.128;19.730;2022-09-09T04:45:37;5.15;;;4.65;;
38262;SDS011;24054;50.128;19.730;2022-09-09T04:48:05;5.90;;;4.60;;
38262;SDS011;24054;50.128;19.730;2022-09-09T04:50:32;5.47;;;4.85;;
38262;SDS011;24054;50.128;19.730;2022-09-09T04:53:00;5.25;;;4.70;;
38262;SDS011;24054;50.128;19.730;2022-09-09T04:55:27;5.25;;;4.75;;
38262;SDS011;24054;50.128;19.730;2022-09-09T04:57:55;5.07;;;4.57;;
38262;SDS011;24054;50.128;19.730;2022-09-09T05:00:22;4.78;;;4.28;;
38262;SDS011;24054;50.128;19.730;2022-09-09T05:02:51;5.05;;;3.97;;
38262;SDS011;24054;50.128;19.730;2022-09-09T05:05:18;6.00;;;4.90;;
38262;SDS011;24054;50.128;19.730;2022-09-09T05:07:45;5.85;;;4.50;;
38262;SDS011;24054;50.128;19.730;2022-09-09T05:10:13;4.82;;;4.32;;
38262;SDS011;24054;50.128;19.730;2022-09-09T05:12:41;5.18;;;4.30;;
38262;SDS011;24054;50.128;19.730;2022-09-09T05:15:09;5.55;;;4.75;;
38262;SDS011;24054;50.128;19.730;2022-09-09T05:17:36;5.03;;;4.32;;
38262;SDS011;24054;50.128;19.730;2022-09-09T05:20:05;4.97;;;4.45;;
38262;SDS011;24054;50.128;19.730;2022-09-09T05:22:33;6.25;;;4.45;;
38262;SDS011;24054;50.128;19.730;2022-09-09T05:25:00;5.32;;;4.50;;
38262;SDS011;24054;50.128;19.730;2022-09-09T05:27:27;5.10;;;4.20;;
38262;SDS011;24054;50.128;19.730;2022-09-09T05:29:56;13.07;;;4.38;;
38262;SDS011;24054;50.128;19.730;2022-09-09T05:32:23;6.85;;;4.43;;
38262;SDS011;24054;50.128;19.730;2022-09-09T05:34:50;8.57;;;4.43;;
38262;SDS011;24054;50.128;19.730;2022-09-09T05:37:19;8.75;;;4.65;;
38262;SDS011;24054;50.128;19.730;2022-09-09T05:39:46;5.28;;;4.28;;
38262;SDS011;24054;50.128;19.730;2022-09-09T05:42:13;6.45;;;4.00;;
38262;SDS011;24054;50.128;19.730;2022-09-09T05:44:40;6.97;;;4.13;;
38262;SDS011;24054;50.128;19.730;2022-09-09T05:47:07;8.70;;;4.78;;
38262;SDS011;24054;50.128;19.730;2022-09-09T05:49:34;7.18;;;4.55;;
38262;SDS011;24054;50.128;19.730;2022-09-09T05:52:01;6.25;;;4.50;;
38262;SDS011;24054;50.128;19.730;2022-09-09T05:54:30;8.52;;;5.68;;
38262;SDS011;24054;50.128;19.730;2022-09-09T05:56:57;7.72;;;4.13;;
38262;SDS011;24054;50.128;19.730;2022-09-09T05:59:27;8.45;;;4.75;;
38262;SDS011;24054;50.128;19.730;2022-09-09T06:01:54;9.02;;;4.60;;
38262;SDS011;24054;50.128;19.730;2022-09-09T06:04:21;9.90;;;4.70;;
38262;SDS011;24054;50.128;19.730;2022-09-09T06:06:49;7.40;;;4.83;;
38262;SDS011;24054;50.128;19.730;2022-09-09T06:09:16;10.45;;;4.88;;
38262;SDS011;24054;50.128;19.730;2022-09-09T06:11:44;8.38;;;4.63;;
38262;SDS011;24054;50.128;19.730;2022-09-09T06:14:11;9.80;;;5.10;;
38262;SDS011;24054;50.128;19.730;2022-09-09T06:16:39;6.93;;;4.30;;
38262;SDS011;24054;50.128;19.730;2022-09-09T06:19:09;7.20;;;4.50;;
38262;SDS011;24054;50.128;19.730;2022-09-09T06:21:37;5.75;;;4.30;;
38262;SDS011;24054;50.128;19.730;2022-09-09T06:24:07;5.93;;;4.78;;
38262;SDS011;24054;50.128;19.730;2022-09-09T06:26:35;6.25;;;3.95;;
38262;SDS011;24054;50.128;19.730;2022-09-09T06:29:07;14.35;;;4.82;;
38262;SDS011;24054;50.128;19.730;2022-09-09T06:31:35;12.88;;;5.10;;
38262;SDS011;24054;50.128;19.730;2022-09-09T06:34:03;14.32;;;4.75;;
38262;SDS011;24054;50.128;19.730;2022-09-09T06:36:32;6.90;;;4.65;;
38262;SDS011;24054;50.128;19.730;2022-09-09T06:39:00;9.18;;;5.10;;
38262;SDS011;24054;50.128;19.730;2022-09-09T06:41:29;13.20;;;4.63;;
38262;SDS011;24054;50.128;19.730;2022-09-09T06:43:58;9.57;;;4.90;;
38262;SDS011;24054;50.128;19.730;2022-09-09T06:46:27;10.63;;;4.35;;
38262;SDS011;24054;50.128;19.730;2022-09-09T06:48:57;8.27;;;5.05;;
38262;SDS011;24054;50.128;19.730;2022-09-09T06:51:27;10.65;;;4.82;;
38262;SDS011;24054;50.128;19.730;2022-09-09T06:53:56;14.57;;;5.75;;
38262;SDS011;24054;50.128;19.730;2022-09-09T06:56:25;12.00;;;5.30;;
38262;SDS011;24054;50.128;19.730;2022-09-09T06:58:53;10.18;;;4.90;;
38262;SDS011;24054;50.128;19.730;2022-09-09T07:01:22;8.35;;;4.72;;
38262;SDS011;24054;50.128;19.730;2022-09-09T07:03:51;9.05;;;4.70;;
38262;SDS011;24054;50.128;19.730;2022-09-09T07:06:20;7.00;;;4.72;;
38262;SDS011;24054;50.128;19.730;2022-09-09T07:08:49;11.20;;;5.57;;
38262;SDS011;24054;50.128;19.730;2022-09-09T07:11:17;13.85;;;7.53;;
38262;SDS011;24054;50.128;19.730;2022-09-09T07:13:45;16.15;;;9.30;;
38262;SDS011;24054;50.128;19.730;2022-09-09T07:16:13;14.95;;;10.98;;
38262;SDS011;24054;50.128;19.730;2022-09-09T07:18:42;18.98;;;12.32;;
38262;SDS011;24054;50.128;19.730;2022-09-09T07:21:11;18.80;;;13.48;;
38262;SDS011;24054;50.128;19.730;2022-09-09T07:23:39;16.90;;;13.07;;
38262;SDS011;24054;50.128;19.730;2022-09-09T07:26:07;17.58;;;13.15;;
38262;SDS011;24054;50.128;19.730;2022-09-09T07:31:03;17.90;;;14.27;;
38262;SDS011;24054;50.128;19.730;2022-09-09T07:33:32;19.85;;;13.57;;
38262;SDS011;24054;50.128;19.730;2022-09-09T07:38:37;19.98;;;13.30;;
38262;SDS011;24054;50.128;19.730;2022-09-09T07:41:05;17.85;;;12.40;;
38262;SDS011;24054;50.128;19.730;2022-09-09T07:43:36;16.67;;;12.05;;
38262;SDS011;24054;50.128;19.730;2022-09-09T07:46:04;17.75;;;12.18;;
38262;SDS011;24054;50.128;19.730;2022-09-09T07:48:32;16.33;;;11.65;;
38262;SDS011;24054;50.128;19.730;2022-09-09T07:51:04;18.27;;;11.07;;
38262;SDS011;24054;50.128;19.730;2022-09-09T07:53:34;14.38;;;10.50;;
38262;SDS011;24054;50.128;19.730;2022-09-09T07:56:04;18.30;;;11.15;;
38262;SDS011;24054;50.128;19.730;2022-09-09T07:58:32;13.20;;;10.75;;
38262;SDS011;24054;50.128;19.730;2022-09-09T08:00:59;14.40;;;9.05;;
38262;SDS011;24054;50.128;19.730;2022-09-09T08:03:26;13.77;;;9.07;;
38262;SDS011;24054;50.128;19.730;2022-09-09T08:05:56;16.42;;;8.30;;
38262;SDS011;24054;50.128;19.730;2022-09-09T08:08:27;9.95;;;7.60;;
38262;SDS011;24054;50.128;19.730;2022-09-09T08:11:02;11.73;;;8.13;;
38262;SDS011;24054;50.128;19.730;2022-09-09T08:13:30;8.07;;;7.05;;
38262;SDS011;24054;50.128;19.730;2022-09-09T08:16:03;11.27;;;7.05;;
38262;SDS011;24054;50.128;19.730;2022-09-09T08:18:32;9.00;;;7.28;;
38262;SDS011;24054;50.128;19.730;2022-09-09T08:21:04;9.77;;;6.65;;
38262;SDS011;24054;50.128;19.730;2022-09-09T08:23:33;6.50;;;5.70;;
38262;SDS011;24054;50.128;19.730;2022-09-09T08:26:05;9.13;;;6.47;;
38262;SDS011;24054;50.128;19.730;2022-09-09T08:28:34;7.40;;;6.10;;
38262;SDS011;24054;50.128;19.730;2022-09-09T08:31:08;8.00;;;6.03;;
38262;SDS011;24054;50.128;19.730;2022-09-09T08:33:37;6.50;;;5.68;;
38262;SDS011;24054;50.128;19.730;2022-09-09T08:36:06;8.02;;;5.28;;
38262;SDS011;24054;50.128;19.730;2022-09-09T08:38:36;8.32;;;5.38;;
38262;SDS011;24054;50.128;19.730;2022-09-09T08:41:15;6.05;;;5.22;;
38262;SDS011;24054;50.128;19.730;2022-09-09T08:44:04;7.13;;;5.32;;
38262;SDS011;24054;50.128;19.730;2022-09-09T08:46:38;6.68;;;5.10;;
38262;SDS011;24054;50.128;19.730;2022-09-09T08:49:15;5.53;;;4.32;;
38262;SDS011;24054;50.128;19.730;2022-09-09T08:51:51;7.28;;;5.18;;
38262;SDS011;24054;50.128;19.730;2022-09-09T08:54:21;6.43;;;4.22;;
38262;SDS011;24054;50.128;19.730;2022-09-09T08:56:50;5.88;;;3.97;;
38262;SDS011;24054;50.128;19.730;2022-09-09T08:59:17;5.35;;;3.65;;
38262;SDS011;24054;50.128;19.730;2022-09-09T09:01:50;5.35;;;3.35;;
38262;SDS011;24054;50.128;19.730;2022-09-09T09:04:38;4.72;;;3.30;;
38262;SDS011;24054;50.128;19.730;2022-09-09T09:07:21;3.33;;;2.92;;
38262;SDS011;24054;50.128;19.730;2022-09-09T09:09:58;3.10;;;2.53;;
38262;SDS011;24054;50.128;19.730;2022-09-09T09:12:35;4.60;;;2.88;;
38262;SDS011;24054;50.128;19.730;2022-09-09T09:15:09;3.67;;;2.50;;
38262;SDS011;24054;50.128;19.730;2022-09-09T09:17:44;3.10;;;2.72;;
38262;SDS011;24054;50.128;19.730;2022-09-09T09:20:12;2.72;;;2.47;;
38262;SDS011;24054;50.128;19.730;2022-09-09T09:22:43;4.63;;;2.92;;
38262;SDS011;24054;50.128;19.730;2022-09-09T09:25:15;10.07;;;5.13;;
38262;SDS011;24054;50.128;19.730;2022-09-09T09:27:48;12.55;;;5.38;;
38262;SDS011;24054;50.128;19.730;2022-09-09T09:30:29;21.13;;;8.15;;
38262;SDS011;24054;50.128;19.730;2022-09-09T09:33:02;26.38;;;9.63;;
38262;SDS011;24054;50.128;19.730;2022-09-09T09:35:32;22.10;;;9.23;;
38262;SDS011;24054;50.128;19.730;2022-09-09T09:37:59;21.30;;;9.23;;
38262;SDS011;24054;50.128;19.730;2022-09-09T09:40:28;19.20;;;8.05;;
38262;SDS011;24054;50.128;19.730;2022-09-09T09:42:57;16.10;;;7.30;;
38262;SDS011;24054;50.128;19.730;2022-09-09T09:45:32;15.50;;;7.32;;
38262;SDS011;24054;50.128;19.730;2022-09-09T09:48:01;16.02;;;7.25;;
38262;SDS011;24054;50.128;19.730;2022-09-09T09:50:30;13.07;;;6.30;;
38262;SDS011;24054;50.128;19.730;2022-09-09T09:55:26;8.85;;;5.20;;
38262;SDS011;24054;50.128;19.730;2022-09-09T09:58:02;10.48;;;5.22;;
38262;SDS011;24054;50.128;19.730;2022-09-09T10:00:31;7.18;;;3.90;;
38262;SDS011;24054;50.128;19.730;2022-09-09T10:02:59;8.07;;;4.07;;
38262;SDS011;24054;50.128;19.730;2022-09-09T10:05:28;6.63;;;3.75;;
38262;SDS011;24054;50.128;19.730;2022-09-09T10:08:03;5.18;;;3.28;;
38262;SDS011;24054;50.128;19.730;2022-09-09T10:10:34;9.52;;;4.13;;
38262;SDS011;24054;50.128;19.730;2022-09-09T10:13:13;6.07;;;3.45;;
38262;SDS011;24054;50.128;19.730;2022-09-09T10:15:48;5.97;;;3.10;;
38262;SDS011;24054;50.128;19.730;2022-09-09T10:18:25;6.85;;;3.03;;
38262;SDS011;24054;50.128;19.730;2022-09-09T10:21:06;4.40;;;2.63;;
38262;SDS011;24054;50.128;19.730;2022-09-09T10:23:52;6.18;;;2.88;;
38262;SDS011;24054;50.128;19.730;2022-09-09T10:26:36;5.38;;;2.50;;
38262;SDS011;24054;50.128;19.730;2022-09-09T10:29:13;2.97;;;2.22;;
38262;SDS011;24054;50.128;19.730;2022-09-09T10:32:02;3.60;;;2.20;;
38262;SDS011;24054;50.128;19.730;2022-09-09T10:37:29;3.92;;;1.80;;
38262;SDS011;24054;50.128;19.730;2022-09-09T10:40:12;4.07;;;2.28;;
38262;SDS011;24054;50.128;19.730;2022-09-09T10:42:47;1.92;;;1.73;;
38262;SDS011;24054;50.128;19.730;2022-09-09T10:45:17;2.33;;;1.60;;
38262;SDS011;24054;50.128;19.730;2022-09-09T10:47:52;2.15;;;1.60;;
38262;SDS011;24054;50.128;19.730;2022-09-09T10:50:42;4.15;;;1.88;;
38262;SDS011;24054;50.128;19.730;2022-09-09T10:53:17;3.03;;;1.80;;
38262;SDS011;24054;50.128;19.730;2022-09-09T10:55:56;1.98;;;1.48;;
38262;SDS011;24054;50.128;19.730;2022-09-09T10:58:29;1.48;;;1.38;;
38262;SDS011;24054;50.128;19.730;2022-09-09T11:01:05;1.95;;;1.50;;
38262;SDS011;24054;50.128;19.730;2022-09-09T11:03:37;2.42;;;1.17;;
38262;SDS011;24054;50.128;19.730;2022-09-09T11:06:06;2.25;;;1.02;;
38262;SDS011;24054;50.128;19.730;2022-09-09T11:08:39;5.75;;;1.52;;
38262;SDS011;24054;50.128;19.730;2022-09-09T11:11:09;1.80;;;1.30;;
38262;SDS011;24054;50.128;19.730;2022-09-09T11:13:42;2.83;;;1.50;;
38262;SDS011;24054;50.128;19.730;2022-09-09T11:16:20;2.28;;;1.90;;
38262;SDS011;24054;50.128;19.730;2022-09-09T11:18:53;5.57;;;1.30;;
38262;SDS011;24054;50.128;19.730;2022-09-09T11:21:27;3.15;;;1.65;;
38262;SDS011;24054;50.128;19.730;2022-09-09T11:23:59;3.05;;;1.50;;
38262;SDS011;24054;50.128;19.730;2022-09-09T11:26:31;3.08;;;1.42;;
38262;SDS011;24054;50.128;19.730;2022-09-09T11:29:21;2.08;;;1.30;;
38262;SDS011;24054;50.128;19.730;2022-09-09T11:32:11;2.30;;;1.30;;
38262;SDS011;24054;50.128;19.730;2022-09-09T11:34:53;2.67;;;1.55;;
38262;SDS011;24054;50.128;19.730;2022-09-09T11:37:35;1.55;;;1.20;;
38262;SDS011;24054;50.128;19.730;2022-09-09T11:40:18;3.30;;;1.25;;
38262;SDS011;24054;50.128;19.730;2022-09-09T11:42:48;3.40;;;1.30;;
38262;SDS011;24054;50.128;19.730;2022-09-09T11:45:27;2.35;;;1.30;;
38262;SDS011;24054;50.128;19.730;2022-09-09T11:47:57;2.15;;;1.30;;
38262;SDS011;24054;50.128;19.730;2022-09-09T11:50:33;1.45;;;1.25;;
38262;SDS011;24054;50.128;19.730;2022-09-09T11:55:47;1.65;;;1.30;;
38262;SDS011;24054;50.128;19.730;2022-09-09T11:58:26;1.55;;;1.30;;
38262;SDS011;24054;50.128;19.730;2022-09-09T12:00:59;2.20;;;1.45;;
38262;SDS011;24054;50.128;19.730;2022-09-09T12:03:38;2.45;;;1.27;;
38262;SDS011;24054;50.128;19.730;2022-09-09T12:06:11;1.92;;;1.55;;
38262;SDS011;24054;50.128;19.730;2022-09-09T12:08:45;2.30;;;1.55;;
38262;SDS011;24054;50.128;19.730;2022-09-09T12:11:23;2.33;;;1.23;;
38262;SDS011;24054;50.128;19.730;2022-09-09T12:13:52;2.83;;;1.10;;
38262;SDS011;24054;50.128;19.730;2022-09-09T12:16:27;2.85;;;1.33;;
38262;SDS011;24054;50.128;19.730;2022-09-09T12:19:14;1.92;;;1.20;;
38262;SDS011;24054;50.128;19.730;2022-09-09T12:21:45;3.28;;;1.40;;
38262;SDS011;24054;50.128;19.730;2022-09-09T12:24:19;4.18;;;1.30;;
38262;SDS011;24054;50.128;19.730;2022-09-09T12:26:54;1.83;;;1.20;;
38262;SDS011;24054;50.128;19.730;2022-09-09T12:29:28;2.85;;;1.40;;
38262;SDS011;24054;50.128;19.730;2022-09-09T12:32:04;1.70;;;1.40;;
38262;SDS011;24054;50.128;19.730;2022-09-09T12:34:38;2.83;;;1.40;;
38262;SDS011;24054;50.128;19.730;2022-09-09T12:37:11;3.03;;;1.40;;
38262;SDS011;24054;50.128;19.730;2022-09-09T12:39:44;2.30;;;1.42;;
38262;SDS011;24054;50.128;19.730;2022-09-09T12:42:16;3.42;;;1.60;;
38262;SDS011;24054;50.128;19.730;2022-09-09T12:47:22;5.70;;;1.55;;
38262;SDS011;24054;50.128;19.730;2022-09-09T12:49:55;2.60;;;1.50;;
38262;SDS011;24054;50.128;19.730;2022-09-09T12:52:27;3.45;;;1.40;;
38262;SDS011;24054;50.128;19.730;2022-09-09T12:54:59;2.55;;;1.30;;
38262;SDS011;24054;50.128;19.730;2022-09-09T12:57:31;4.03;;;1.48;;
38262;SDS011;24054;50.128;19.730;2022-09-09T13:00:05;4.10;;;1.40;;
38262;SDS011;24054;50.128;19.730;2022-09-09T13:02:44;3.95;;;1.90;;
38262;SDS011;24054;50.128;19.730;2022-09-09T13:05:16;2.08;;;1.48;;
38262;SDS011;24054;50.128;19.730;2022-09-09T13:07:48;1.75;;;1.30;;
38262;SDS011;24054;50.128;19.730;2022-09-09T13:10:20;2.45;;;1.23;;
38262;SDS011;24054;50.128;19.730;2022-09-09T13:12:52;1.52;;;1.40;;
38262;SDS011;24054;50.128;19.730;2022-09-09T13:15:21;2.95;;;1.55;;
38262;SDS011;24054;50.128;19.730;2022-09-09T13:17:52;1.63;;;1.20;;
38262;SDS011;24054;50.128;19.730;2022-09-09T13:20:24;2.80;;;1.50;;
38262;SDS011;24054;50.128;19.730;2022-09-09T13:22:52;2.65;;;1.30;;
38262;SDS011;24054;50.128;19.730;2022-09-09T13:25:23;3.03;;;1.20;;
38262;SDS011;24054;50.128;19.730;2022-09-09T13:27:53;2.15;;;1.40;;
38262;SDS011;24054;50.128;19.730;2022-09-09T13:30:26;1.92;;;1.30;;
38262;SDS011;24054;50.128;19.730;2022-09-09T13:33:03;2.47;;;1.30;;
38262;SDS011;24054;50.128;19.730;2022-09-09T13:35:44;1.58;;;1.40;;
38262;SDS011;24054;50.128;19.730;2022-09-09T13:38:14;2.72;;;1.30;;
38262;SDS011;24054;50.128;19.730;2022-09-09T13:40:51;1.70;;;1.30;;
38262;SDS011;24054;50.128;19.730;2022-09-09T13:43:24;3.92;;;1.55;;
38262;SDS011;24054;50.128;19.730;2022-09-09T13:45:54;1.60;;;1.30;;
38262;SDS011;24054;50.128;19.730;2022-09-09T13:48:23;4.88;;;1.50;;
38262;SDS011;24054;50.128;19.730;2022-09-09T13:51:03;1.23;;;1.13;;
38262;SDS011;24054;50.128;19.730;2022-09-09T13:53:31;4.72;;;2.03;;
38262;SDS011;24054;50.128;19.730;2022-09-09T13:55:58;1.65;;;1.50;;
38262;SDS011;24054;50.128;19.730;2022-09-09T13:58:26;1.95;;;1.58;;
38262;SDS011;24054;50.128;19.730;2022-09-09T14:00:53;2.72;;;1.40;;
38262;SDS011;24054;50.128;19.730;2022-09-09T14:03:21;3.92;;;1.50;;
38262;SDS011;24054;50.128;19.730;2022-09-09T14:05:50;1.55;;;1.23;;
38262;SDS011;24054;50.128;19.730;2022-09-09T14:08:24;1.83;;;1.50;;
38262;SDS011;24054;50.128;19.730;2022-09-09T14:11:02;2.47;;;1.33;;
38262;SDS011;24054;50.128;19.730;2022-09-09T14:13:29;8.73;;;1.40;;
38262;SDS011;24054;50.128;19.730;2022-09-09T14:15:58;2.63;;;1.67;;
38262;SDS011;24054;50.128;19.730;2022-09-09T14:18:30;1.50;;;1.40;;
38262;SDS011;24054;50.128;19.730;2022-09-09T14:20:59;3.78;;;1.90;;
38262;SDS011;24054;50.128;19.730;2022-09-09T14:23:30;2.50;;;1.55;;
38262;SDS011;24054;50.128;19.730;2022-09-09T14:25:58;2.40;;;1.73;;
38262;SDS011;24054;50.128;19.730;2022-09-09T14:28:25;1.70;;;1.60;;
38262;SDS011;24054;50.128;19.730;2022-09-09T14:30:53;1.40;;;1.30;;
38262;SDS011;24054;50.128;19.730;2022-09-09T14:33:21;1.50;;;1.40;;
38262;SDS011;24054;50.128;19.730;2022-09-09T14:35:55;1.88;;;1.70;;
38262;SDS011;24054;50.128;19.730;2022-09-09T14:38:24;2.35;;;1.67;;
38262;SDS011;24054;50.128;19.730;2022-09-09T14:40:53;2.58;;;1.80;;
38262;SDS011;24054;50.128;19.730;2022-09-09T14:43:21;3.65;;;1.80;;
38262;SDS011;24054;50.128;19.730;2022-09-09T14:45:48;1.90;;;1.80;;
38262;SDS011;24054;50.128;19.730;2022-09-09T14:48:16;1.90;;;1.77;;
38262;SDS011;24054;50.128;19.730;2022-09-09T14:50:46;3.78;;;1.90;;
38262;SDS011;24054;50.128;19.730;2022-09-09T14:53:15;4.38;;;2.30;;
38262;SDS011;24054;50.128;19.730;2022-09-09T14:55:44;2.30;;;2.00;;
38262;SDS011;24054;50.128;19.730;2022-09-09T15:00:42;3.05;;;2.55;;
38262;SDS011;24054;50.128;19.730;2022-09-09T15:05:39;4.78;;;3.47;;
38262;SDS011;24054;50.128;19.730;2022-09-09T15:08:07;4.72;;;3.72;;
38262;SDS011;24054;50.128;19.730;2022-09-09T15:10:35;3.90;;;3.50;;
38262;SDS011;24054;50.128;19.730;2022-09-09T15:13:04;4.45;;;3.50;;
38262;SDS011;24054;50.128;19.730;2022-09-09T15:15:33;4.15;;;3.75;;
38262;SDS011;24054;50.128;19.730;2022-09-09T15:18:01;4.28;;;3.90;;
38262;SDS011;24054;50.128;19.730;2022-09-09T15:20:29;5.05;;;4.00;;
38262;SDS011;24054;50.128;19.730;2022-09-09T15:22:56;4.03;;;3.72;;